Time;durP1;ratioP1;P1;durP2;ratioP2;P2;SDS_P1;SDS_P2;PMS_P1;PMS_P2;Temp;Humidity;BMP_temperature;BMP_pressure;BME280_temperature;BME280_humidity;BME280_pressure;Samples;Min_cycle;Max_cycle;Signal;HPM_P1;HPM_P2
2022/11/25 00:01:23;;;;;;;0.20;0.10;;;;;;;;;;4940790;28;20039;-85
2022/11/25 00:03:51;;;;;;;0.20;0.10;;;;;;;;;;4960694;28;20035;-84
2022/11/25 00:06:19;;;;;;;0.20;0.10;;;;;;;;;;4962926;28;20066;-83
2022/11/25 00:08:45;;;;;;;0.20;0.10;;;;;;;;;;4959419;28;20038;-85
2022/11/25 00:11:12;;;;;;;0.20;0.00;;;;;;;;;;4970946;23;20044;-85
2022/11/25 00:13:38;;;;;;;0.20;0.10;;;;;;;;;;4988728;28;20117;-85
2022/11/25 00:16:09;;;;;;;0.20;0.10;;;;;;;;;;5012787;28;20064;-85
2022/11/25 00:18:35;;;;;;;0.20;0.10;;;;;;;;;;5015986;28;20041;-85
2022/11/25 00:21:06;;;;;;;0.20;0.10;;;;;;;;;;5000482;28;20099;-84
2022/11/25 00:23:32;;;;;;;0.20;0.10;;;;;;;;;;5014723;28;20128;-85
2022/11/25 00:26:04;;;;;;;0.20;0.10;;;;;;;;;;4986540;28;20041;-85
2022/11/25 00:28:30;;;;;;;0.20;0.10;;;;;;;;;;5017173;28;20385;-85
2022/11/25 00:31:03;;;;;;;0.20;0.10;;;;;;;;;;4999229;28;20042;-85
2022/11/25 00:33:29;;;;;;;;;;;;;;;;;;4994458;28;20041;-85
2022/11/25 00:35:55;;;;;;;0.20;0.10;;;;;;;;;;4998066;28;19922;-85
2022/11/25 00:38:21;;;;;;;0.20;0.10;;;;;;;;;;4986646;28;20038;-85
2022/11/25 00:44:34;;;;;;;0.20;0.10;;;;;;;;;;4998313;28;20064;-85
2022/11/25 00:46:22;;;;;;;0.20;0.10;;;;;;;;;;5009449;28;20068;-85
2022/11/25 00:48:48;;;;;;;0.20;0.10;;;;;;;;;;4988067;28;20038;-85
2022/11/25 00:51:14;;;;;;;0.20;0.10;;;;;;;;;;4996576;28;20512;-85
2022/11/25 00:53:40;;;;;;;0.20;0.17;;;;;;;;;;4981843;28;20049;-85
2022/11/25 00:56:12;;;;;;;0.20;0.10;;;;;;;;;;4995758;28;20037;-85
2022/11/25 00:58:38;;;;;;;0.20;0.10;;;;;;;;;;4986398;28;20496;-84
2022/11/25 01:01:05;;;;;;;0.20;0.10;;;;;;;;;;4996010;28;20382;-84
2022/11/25 01:03:31;;;;;;;0.20;0.10;;;;;;;;;;4994659;28;20051;-84
2022/11/25 01:06:04;;;;;;;0.20;0.10;;;;;;;;;;4982041;28;20037;-85
2022/11/25 01:08:31;;;;;;;0.20;0.10;;;;;;;;;;5004924;28;20124;-84
2022/11/25 01:11:04;;;;;;;0.20;0.10;;;;;;;;;;5000004;28;20073;-84
2022/11/25 01:13:31;;;;;;;0.20;0.10;;;;;;;;;;4997466;28;20128;-84
2022/11/25 01:15:57;;;;;;;0.20;0.10;;;;;;;;;;4993607;28;20501;-84
2022/11/25 01:18:23;;;;;;;0.20;0.10;;;;;;;;;;4982300;28;20076;-84
2022/11/25 01:20:49;;;;;;;0.20;0.10;;;;;;;;;;4997296;28;20038;-85
2022/11/25 01:23:15;;;;;;;0.20;0.10;;;;;;;;;;4979043;28;20091;-85
2022/11/25 01:25:41;;;;;;;0.20;0.10;;;;;;;;;;4994693;28;20049;-85
2022/11/25 01:28:07;;;;;;;0.20;0.10;;;;;;;;;;4993266;28;20071;-85
2022/11/25 01:30:33;;;;;;;0.20;0.10;;;;;;;;;;4982119;28;20060;-84
2022/11/25 01:32:59;;;;;;;0.20;0.10;;;;;;;;;;4980678;28;20056;-84
2022/11/25 01:35:25;;;;;;;0.20;0.10;;;;;;;;;;5013664;28;20044;-85
2022/11/25 01:37:51;;;;;;;0.20;0.10;;;;;;;;;;4981435;28;20038;-85
2022/11/25 01:40:18;;;;;;;0.20;0.10;;;;;;;;;;4983868;28;20055;-84
2022/11/25 01:42:45;;;;;;;0.20;0.10;;;;;;;;;;4993248;28;20045;-84
2022/11/25 01:45:25;;;;;;;0.20;0.17;;;;;;;;;;5000299;28;20424;-85
2022/11/25 01:47:53;;;;;;;0.20;0.10;;;;;;;;;;4992324;28;20041;-85
2022/11/25 01:50:21;;;;;;;0.20;0.10;;;;;;;;;;4993122;28;20038;-85
2022/11/25 01:52:49;;;;;;;0.20;0.10;;;;;;;;;;4998258;28;20167;-84
2022/11/25 01:55:17;;;;;;;0.20;0.10;;;;;;;;;;4996255;28;20617;-84
2022/11/25 01:58:01;;;;;;;0.20;0.10;;;;;;;;;;4997405;28;20411;-85
2022/11/25 02:00:27;;;;;;;0.20;0.10;;;;;;;;;;4991957;28;20405;-85
2022/11/25 02:02:54;;;;;;;0.20;0.10;;;;;;;;;;4991500;28;20051;-86
2022/11/25 02:05:22;;;;;;;0.20;0.10;;;;;;;;;;4996260;28;20041;-85
2022/11/25 02:07:49;;;;;;;0.20;0.10;;;;;;;;;;4997598;28;20394;-85
2022/11/25 02:10:17;;;;;;;0.20;0.10;;;;;;;;;;4995594;28;20120;-83
2022/11/25 02:12:45;;;;;;;0.20;0.10;;;;;;;;;;5000707;28;20055;-85
2022/11/25 02:15:12;;;;;;;0.20;0.10;;;;;;;;;;4997168;28;20041;-85
2022/11/25 02:17:38;;;;;;;0.20;0.10;;;;;;;;;;5015052;28;20471;-84
2022/11/25 02:20:06;;;;;;;0.20;0.10;;;;;;;;;;4998544;28;20047;-84
2022/11/25 02:22:32;;;;;;;0.20;0.10;;;;;;;;;;4992876;28;20320;-84
2022/11/25 02:25:02;;;;;;;0.20;0.10;;;;;;;;;;4993088;28;20115;-84
2022/11/25 02:27:28;;;;;;;0.20;0.10;;;;;;;;;;4993106;28;20037;-84
2022/11/25 02:29:54;;;;;;;0.20;0.10;;;;;;;;;;4983967;28;20052;-85
2022/11/25 02:32:22;;;;;;;0.20;0.10;;;;;;;;;;4993438;28;20128;-85
2022/11/25 02:34:48;;;;;;;0.20;0.10;;;;;;;;;;4994292;28;20389;-84
2022/11/25 02:37:16;;;;;;;0.20;0.10;;;;;;;;;;4995541;28;20135;-85
2022/11/25 02:39:42;;;;;;;0.20;0.10;;;;;;;;;;4995950;28;20041;-84
2022/11/25 02:42:08;;;;;;;0.20;0.10;;;;;;;;;;4985171;28;20038;-85
2022/11/25 02:44:34;;;;;;;0.20;0.10;;;;;;;;;;4992101;28;20481;-84
2022/11/25 02:47:00;;;;;;;0.20;0.10;;;;;;;;;;4995600;28;20515;-83
2022/11/25 02:49:26;;;;;;;0.20;0.10;;;;;;;;;;4994547;28;20045;-84
2022/11/25 02:51:52;;;;;;;0.20;0.10;;;;;;;;;;4993796;28;20040;-83
2022/11/25 02:54:19;;;;;;;0.20;0.10;;;;;;;;;;4980986;28;20132;-84
2022/11/25 02:56:45;;;;;;;0.20;0.10;;;;;;;;;;4993627;28;20146;-84
2022/11/25 02:59:11;;;;;;;0.20;0.10;;;;;;;;;;4993443;28;20046;-84
2022/11/25 03:01:37;;;;;;;0.20;0.10;;;;;;;;;;4981496;28;20307;-84
2022/11/25 03:04:03;;;;;;;0.20;0.10;;;;;;;;;;4981881;28;20034;-84
2022/11/25 03:06:30;;;;;;;0.20;0.10;;;;;;;;;;4996465;28;20060;-84
2022/11/25 03:08:56;;;;;;;0.20;0.10;;;;;;;;;;5000756;28;20481;-84
2022/11/25 03:12:17;;;;;;;0.20;0.10;;;;;;;;;;4980075;28;20041;-85
2022/11/25 03:14:11;;;;;;;0.20;0.10;;;;;;;;;;5001275;28;20052;-85
2022/11/25 03:16:38;;;;;;;0.20;0.10;;;;;;;;;;4983831;28;20124;-85
2022/11/25 03:19:04;;;;;;;0.20;0.10;;;;;;;;;;4995406;28;20073;-85
2022/11/25 03:21:30;;;;;;;0.20;0.10;;;;;;;;;;5009190;28;20033;-85
2022/11/25 03:23:56;;;;;;;0.40;0.40;;;;;;;;;;4974478;28;20113;-84
2022/11/25 03:26:24;;;;;;;0.20;0.10;;;;;;;;;;4980571;28;20120;-85
2022/11/25 03:28:50;;;;;;;0.20;0.10;;;;;;;;;;4990233;28;20121;-85
2022/11/25 03:31:16;;;;;;;0.20;0.10;;;;;;;;;;4981626;28;20232;-86
2022/11/25 03:33:43;;;;;;;0.20;0.10;;;;;;;;;;4993622;28;20051;-85
2022/11/25 03:36:09;;;;;;;0.20;0.10;;;;;;;;;;4981372;28;20286;-85
2022/11/25 03:38:35;;;;;;;0.20;0.10;;;;;;;;;;4992872;28;20037;-84
2022/11/25 03:41:01;;;;;;;0.20;0.10;;;;;;;;;;4994202;28;20045;-85
2022/11/25 03:43:27;;;;;;;0.20;0.10;;;;;;;;;;4995261;28;20033;-86
2022/11/25 03:45:53;;;;;;;0.20;0.10;;;;;;;;;;4993472;28;20042;-85
2022/11/25 03:48:19;;;;;;;0.20;0.10;;;;;;;;;;4994226;28;20639;-85
2022/11/25 03:50:47;;;;;;;0.20;0.10;;;;;;;;;;4981079;28;20095;-84
2022/11/25 03:53:13;;;;;;;0.20;0.10;;;;;;;;;;4999105;28;20138;-85
2022/11/25 03:55:39;;;;;;;0.20;0.10;;;;;;;;;;4996236;28;20041;-85
2022/11/25 03:58:05;;;;;;;0.20;0.10;;;;;;;;;;5014071;28;20041;-85
2022/11/25 04:00:32;;;;;;;0.20;0.10;;;;;;;;;;4981468;28;20089;-85
2022/11/25 04:02:58;;;;;;;0.20;0.10;;;;;;;;;;4993680;28;20042;-85
2022/11/25 04:05:24;;;;;;;0.20;0.10;;;;;;;;;;5013525;28;20038;-85
2022/11/25 04:07:50;;;;;;;0.20;0.10;;;;;;;;;;4982013;28;20104;-85
2022/11/25 04:10:17;;;;;;;0.20;0.10;;;;;;;;;;4995539;28;20072;-85
2022/11/25 04:12:45;;;;;;;0.20;0.10;;;;;;;;;;4997091;28;20042;-84
2022/11/25 04:15:12;;;;;;;0.20;0.10;;;;;;;;;;4993663;28;20523;-84
2022/11/25 04:17:38;;;;;;;0.20;0.10;;;;;;;;;;5003130;28;20464;-85
2022/11/25 04:20:04;;;;;;;1.20;0.30;;;;;;;;;;4994876;28;20385;-85
2022/11/25 04:22:30;;;;;;;0.20;0.10;;;;;;;;;;4995264;28;20447;-84
2022/11/25 04:24:56;;;;;;;0.20;0.05;;;;;;;;;;4996391;28;20044;-85
2022/11/25 04:27:22;;;;;;;0.20;0.20;;;;;;;;;;4985436;28;20080;-85
2022/11/25 04:29:49;;;;;;;0.20;0.10;;;;;;;;;;5012896;28;20037;-86
2022/11/25 04:32:15;;;;;;;0.20;0.10;;;;;;;;;;4993168;28;20041;-86
2022/11/25 04:34:41;;;;;;;0.20;0.10;;;;;;;;;;5010658;28;20144;-86
2022/11/25 04:37:07;;;;;;;0.20;0.10;;;;;;;;;;4994310;28;20034;-85
2022/11/25 04:39:33;;;;;;;0.20;0.10;;;;;;;;;;4995691;28;20425;-85
2022/11/25 04:44:44;;;;;;;0.20;0.10;;;;;;;;;;4996677;28;20383;-85
2022/11/25 04:47:10;;;;;;;0.20;0.10;;;;;;;;;;4991957;28;20516;-84
2022/11/25 04:49:36;;;;;;;0.20;0.10;;;;;;;;;;5001924;28;20038;-85
2022/11/25 04:52:02;;;;;;;0.20;0.10;;;;;;;;;;4992690;28;20404;-85
2022/11/25 04:54:29;;;;;;;0.20;0.10;;;;;;;;;;4995369;28;20342;-84
2022/11/25 04:56:55;;;;;;;0.20;0.10;;;;;;;;;;5010714;28;20037;-85
2022/11/25 04:59:39;;;;;;;0.20;0.10;;;;;;;;;;4981755;28;20521;-84
2022/11/25 05:02:20;;;;;;;0.20;0.10;;;;;;;;;;4985647;28;20068;-84
2022/11/25 05:04:47;;;;;;;0.20;0.10;;;;;;;;;;5014943;28;20038;-85
2022/11/25 05:07:14;;;;;;;0.20;0.10;;;;;;;;;;4995438;28;20044;-84
2022/11/25 05:09:40;;;;;;;0.20;0.10;;;;;;;;;;5000632;28;20124;-85
2022/11/25 05:12:07;;;;;;;0.20;0.10;;;;;;;;;;4983456;28;20041;-84
2022/11/25 05:14:34;;;;;;;0.20;0.10;;;;;;;;;;5008472;28;20045;-85
2022/11/25 05:17:01;;;;;;;0.20;0.10;;;;;;;;;;4994299;28;20550;-84
2022/11/25 05:19:27;;;;;;;0.20;0.10;;;;;;;;;;4981622;28;20113;-85
2022/11/25 05:21:53;;;;;;;0.20;0.10;;;;;;;;;;5003195;28;20496;-84
2022/11/25 05:24:19;;;;;;;0.20;0.10;;;;;;;;;;4985730;28;20115;-85
2022/11/25 05:26:45;;;;;;;0.20;0.10;;;;;;;;;;5011359;28;20048;-85
2022/11/25 05:29:11;;;;;;;0.20;0.10;;;;;;;;;;5001226;28;20055;-85
2022/11/25 05:31:37;;;;;;;0.30;0.30;;;;;;;;;;4984676;28;20037;-84
2022/11/25 05:34:04;;;;;;;0.20;0.10;;;;;;;;;;4980074;28;20045;-82
2022/11/25 05:36:30;;;;;;;0.20;0.10;;;;;;;;;;4980528;28;20041;-84
2022/11/25 05:38:56;;;;;;;0.20;0.10;;;;;;;;;;4991663;28;20041;-84
2022/11/25 05:41:23;;;;;;;0.30;0.20;;;;;;;;;;4990133;28;20446;-85
2022/11/25 05:43:49;;;;;;;0.20;0.10;;;;;;;;;;4992521;28;20041;-84
2022/11/25 05:46:15;;;;;;;0.20;0.10;;;;;;;;;;4993996;28;20100;-84
2022/11/25 05:48:41;;;;;;;0.20;0.10;;;;;;;;;;4994481;28;20535;-85
2022/11/25 05:51:08;;;;;;;0.20;0.10;;;;;;;;;;4986599;28;20045;-84
2022/11/25 05:53:34;;;;;;;0.20;0.10;;;;;;;;;;4994966;28;20038;-84
2022/11/25 05:56:05;;;;;;;0.20;0.10;;;;;;;;;;5001726;28;20030;-85
2022/11/25 05:58:32;;;;;;;0.20;0.10;;;;;;;;;;4992391;28;20282;-84
2022/11/25 06:00:58;;;;;;;0.20;0.10;;;;;;;;;;4981674;28;20041;-84
2022/11/25 06:03:25;;;;;;;0.20;0.10;;;;;;;;;;4993618;28;20037;-85
2022/11/25 06:05:51;;;;;;;0.20;0.10;;;;;;;;;;5010028;28;20077;-84
2022/11/25 06:08:17;;;;;;;0.20;0.10;;;;;;;;;;4982168;28;20525;-84
2022/11/25 06:10:43;;;;;;;0.20;0.00;;;;;;;;;;4995760;28;20444;-85
2022/11/25 06:13:09;;;;;;;0.20;0.10;;;;;;;;;;4978521;28;20103;-84
2022/11/25 06:15:41;;;;;;;0.20;0.15;;;;;;;;;;4983436;28;20034;-84
2022/11/25 06:18:07;;;;;;;0.20;0.10;;;;;;;;;;5011489;28;20036;-84
2022/11/25 06:20:33;;;;;;;0.20;0.15;;;;;;;;;;5003477;28;20072;-85
2022/11/25 06:22:59;;;;;;;0.20;0.20;;;;;;;;;;4979903;28;20048;-85
2022/11/25 06:25:25;;;;;;;0.20;0.10;;;;;;;;;;4988682;28;20085;-84
2022/11/25 06:27:52;;;;;;;0.20;0.10;;;;;;;;;;4993236;28;20067;-84
2022/11/25 06:30:18;;;;;;;0.20;0.10;;;;;;;;;;4994175;28;20033;-84
2022/11/25 06:32:45;;;;;;;0.20;0.10;;;;;;;;;;4998032;28;20067;-84
2022/11/25 06:35:11;;;;;;;0.20;0.10;;;;;;;;;;4982896;28;20042;-84
2022/11/25 06:37:37;;;;;;;0.20;0.10;;;;;;;;;;4985312;28;20034;-84
2022/11/25 06:40:03;;;;;;;0.40;0.10;;;;;;;;;;4994349;28;20575;-84
2022/11/25 06:42:30;;;;;;;0.20;0.10;;;;;;;;;;4983946;28;20043;-84
2022/11/25 06:44:56;;;;;;;0.20;0.10;;;;;;;;;;4995185;28;20401;-84
2022/11/25 06:47:22;;;;;;;0.20;0.10;;;;;;;;;;4978871;28;20125;-84
2022/11/25 06:49:48;;;;;;;0.20;0.10;;;;;;;;;;5009113;28;20394;-84
2022/11/25 06:52:14;;;;;;;0.20;0.10;;;;;;;;;;4991751;28;20715;-85
2022/11/25 06:54:40;;;;;;;0.20;0.10;;;;;;;;;;4980422;28;20084;-84
2022/11/25 06:57:11;;;;;;;0.20;0.10;;;;;;;;;;4985559;28;20048;-84
2022/11/25 06:59:37;;;;;;;0.20;0.10;;;;;;;;;;4993801;28;20068;-84
2022/11/25 07:02:03;;;;;;;0.60;0.40;;;;;;;;;;4997952;28;20030;-85
2022/11/25 07:04:30;;;;;;;0.20;0.10;;;;;;;;;;4999558;28;20124;-84
2022/11/25 07:06:56;;;;;;;0.20;0.10;;;;;;;;;;4998912;28;20045;-85
2022/11/25 07:09:23;;;;;;;0.20;0.10;;;;;;;;;;4985274;28;20042;-84
2022/11/25 07:11:49;;;;;;;0.20;0.10;;;;;;;;;;4980765;28;20096;-84
2022/11/25 07:14:16;;;;;;;0.20;0.10;;;;;;;;;;4998133;28;20135;-84
2022/11/25 07:16:44;;;;;;;1.75;0.47;;;;;;;;;;4994910;28;20409;-84
2022/11/25 07:19:11;;;;;;;0.20;0.10;;;;;;;;;;4996596;28;20124;-84
2022/11/25 07:21:37;;;;;;;0.20;0.10;;;;;;;;;;5003101;28;20067;-85
2022/11/25 07:24:04;;;;;;;0.20;0.10;;;;;;;;;;4997889;28;20507;-84
2022/11/25 07:26:32;;;;;;;0.20;0.10;;;;;;;;;;5015206;28;20045;-85
2022/11/25 07:28:59;;;;;;;0.20;0.10;;;;;;;;;;4994658;28;20184;-85
2022/11/25 07:31:26;;;;;;;0.38;0.20;;;;;;;;;;4995293;28;20037;-84
2022/11/25 07:33:53;;;;;;;0.20;0.10;;;;;;;;;;5011617;28;20045;-84
2022/11/25 07:36:19;;;;;;;0.20;0.10;;;;;;;;;;4997620;28;20634;-84
2022/11/25 07:38:45;;;;;;;0.20;0.10;;;;;;;;;;5001550;28;20124;-84
2022/11/25 07:41:13;;;;;;;0.20;0.10;;;;;;;;;;5004902;28;20191;-84
2022/11/25 07:43:39;;;;;;;0.20;0.10;;;;;;;;;;5002601;28;20045;-85
2022/11/25 07:46:12;;;;;;;0.20;0.10;;;;;;;;;;5000418;28;20324;-84
2022/11/25 07:48:39;;;;;;;0.20;0.10;;;;;;;;;;5012886;28;20081;-84
2022/11/25 07:51:05;;;;;;;0.20;0.10;;;;;;;;;;5009995;28;20052;-85
2022/11/25 07:53:32;;;;;;;0.20;0.10;;;;;;;;;;4980842;28;20048;-84
2022/11/25 07:56:01;;;;;;;0.20;0.10;;;;;;;;;;4996190;28;20040;-84
2022/11/25 07:58:27;;;;;;;0.20;0.10;;;;;;;;;;4998575;28;20099;-84
2022/11/25 08:00:53;;;;;;;0.20;0.10;;;;;;;;;;4994516;28;20377;-85
2022/11/25 08:03:20;;;;;;;0.20;0.10;;;;;;;;;;4987817;28;20052;-84
2022/11/25 08:05:46;;;;;;;0.20;0.10;;;;;;;;;;4985426;28;20125;-84
2022/11/25 08:08:12;;;;;;;0.20;0.10;;;;;;;;;;4986288;28;20378;-84
2022/11/25 08:10:41;;;;;;;0.20;0.10;;;;;;;;;;4983722;28;20047;-84
2022/11/25 08:13:07;;;;;;;0.20;0.10;;;;;;;;;;4985268;28;20120;-84
2022/11/25 08:15:33;;;;;;;0.20;0.10;;;;;;;;;;4998952;28;20038;-84
2022/11/25 08:17:59;;;;;;;0.20;0.10;;;;;;;;;;4984994;28;20133;-84
2022/11/25 08:20:25;;;;;;;0.20;0.10;;;;;;;;;;4985066;28;20041;-84
2022/11/25 08:22:53;;;;;;;0.20;0.10;;;;;;;;;;4992379;28;20038;-84
2022/11/25 08:25:19;;;;;;;0.20;0.10;;;;;;;;;;4995423;28;20052;-84
2022/11/25 08:27:46;;;;;;;0.20;0.10;;;;;;;;;;4994822;28;20038;-83
2022/11/25 08:30:12;;;;;;;0.20;0.10;;;;;;;;;;4996979;28;20034;-84
2022/11/25 08:32:38;;;;;;;0.20;0.10;;;;;;;;;;4999887;28;20100;-84
2022/11/25 08:35:05;;;;;;;0.20;0.20;;;;;;;;;;4986403;28;20050;-85
2022/11/25 08:37:31;;;;;;;0.20;0.10;;;;;;;;;;4994782;28;20087;-85
2022/11/25 08:39:57;;;;;;;0.20;0.10;;;;;;;;;;4996779;28;20038;-85
2022/11/25 08:42:24;;;;;;;1.38;0.28;;;;;;;;;;4995275;28;20077;-85
2022/11/25 08:44:54;;;;;;;0.20;0.10;;;;;;;;;;4985582;28;20465;-85
2022/11/25 08:47:20;;;;;;;0.20;0.10;;;;;;;;;;4994661;28;20519;-84
2022/11/25 08:49:50;;;;;;;0.20;0.10;;;;;;;;;;4995043;28;20037;-84
2022/11/25 08:52:16;;;;;;;0.20;0.10;;;;;;;;;;5008815;28;20042;-85
2022/11/25 08:54:43;;;;;;;7.63;0.65;;;;;;;;;;4998264;28;20064;-85
2022/11/25 08:57:10;;;;;;;0.20;0.10;;;;;;;;;;4984355;28;20119;-84
2022/11/25 08:59:36;;;;;;;0.20;0.10;;;;;;;;;;4992635;28;20068;-84
2022/11/25 09:02:02;;;;;;;0.20;0.10;;;;;;;;;;4994633;28;20057;-85
2022/11/25 09:04:28;;;;;;;0.20;0.10;;;;;;;;;;4984791;28;20041;-85
2022/11/25 09:06:54;;;;;;;0.20;0.10;;;;;;;;;;5010703;28;20259;-84
2022/11/25 09:09:20;;;;;;;0.20;0.10;;;;;;;;;;4996828;28;20409;-85
2022/11/25 09:11:46;;;;;;;0.30;0.30;;;;;;;;;;4979221;28;20046;-85
2022/11/25 09:14:13;;;;;;;0.20;0.10;;;;;;;;;;4983827;28;20092;-84
2022/11/25 09:16:39;;;;;;;0.20;0.10;;;;;;;;;;4995144;28;20048;-84
2022/11/25 09:19:05;;;;;;;0.20;0.10;;;;;;;;;;4983450;28;20065;-85
2022/11/25 09:21:35;;;;;;;0.57;0.30;;;;;;;;;;4997332;28;20222;-83
2022/11/25 09:24:01;;;;;;;0.20;0.10;;;;;;;;;;5021831;28;20123;-85
2022/11/25 09:26:29;;;;;;;0.20;0.10;;;;;;;;;;5002220;28;20108;-85
2022/11/25 09:28:55;;;;;;;0.20;0.10;;;;;;;;;;5002138;28;20033;-84
2022/11/25 09:31:21;;;;;;;2.65;1.48;;;;;;;;;;5000614;28;20060;-84
2022/11/25 09:33:47;;;;;;;0.20;0.10;;;;;;;;;;5001760;28;20046;-85
2022/11/25 09:36:14;;;;;;;0.20;0.10;;;;;;;;;;4985254;28;20041;-84
2022/11/25 09:38:43;;;;;;;0.20;0.10;;;;;;;;;;4993644;28;20041;-84
2022/11/25 09:41:15;;;;;;;0.20;0.10;;;;;;;;;;4982272;28;20033;-84
2022/11/25 09:46:56;;;;;;;0.20;0.10;;;;;;;;;;5008209;28;20041;-85
2022/11/25 09:49:22;;;;;;;6.03;4.25;;;;;;;;;;4994714;28;20033;-84
2022/11/25 09:51:56;;;;;;;0.20;0.10;;;;;;;;;;5003784;28;20045;-85
2022/11/25 09:54:34;;;;;;;0.20;0.10;;;;;;;;;;5014987;28;20137;-85
2022/11/25 09:57:03;;;;;;;0.20;0.10;;;;;;;;;;4994806;28;20037;-83
2022/11/25 09:59:40;;;;;;;0.20;0.10;;;;;;;;;;4991044;28;20107;-84
2022/11/25 10:02:29;;;;;;;0.20;0.10;;;;;;;;;;4993718;28;20040;-85
2022/11/25 10:05:19;;;;;;;0.52;0.30;;;;;;;;;;4995340;28;20597;-84
2022/11/25 10:07:48;;;;;;;0.30;0.30;;;;;;;;;;5009339;28;20059;-84
2022/11/25 10:10:19;;;;;;;0.20;0.10;;;;;;;;;;4994525;28;20140;-85
2022/11/25 10:12:47;;;;;;;0.20;0.10;;;;;;;;;;5010862;28;20052;-83
2022/11/25 10:15:20;;;;;;;0.20;0.10;;;;;;;;;;4995193;28;20595;-85
2022/11/25 10:17:52;;;;;;;0.20;0.10;;;;;;;;;;5011230;28;20084;-84
2022/11/25 10:20:23;;;;;;;0.20;0.10;;;;;;;;;;5008621;28;20088;-84
2022/11/25 10:23:09;;;;;;;0.20;0.10;;;;;;;;;;4999435;28;20563;-85
2022/11/25 10:25:41;;;;;;;0.20;0.10;;;;;;;;;;4996458;28;20065;-85
2022/11/25 10:28:07;;;;;;;0.20;0.10;;;;;;;;;;4997029;28;20033;-85
2022/11/25 10:30:36;;;;;;;0.45;0.45;;;;;;;;;;5002175;28;20056;-85
2022/11/25 10:33:11;;;;;;;0.28;0.25;;;;;;;;;;5012262;28;20033;-85
2022/11/25 10:35:46;;;;;;;0.20;0.10;;;;;;;;;;4995572;28;20752;-84
2022/11/25 10:38:16;;;;;;;0.20;0.10;;;;;;;;;;4994349;28;20033;-85
2022/11/25 10:40:44;;;;;;;0.20;0.10;;;;;;;;;;5010965;28;20065;-85
2022/11/25 10:43:13;;;;;;;0.20;0.10;;;;;;;;;;5013623;28;20061;-86
2022/11/25 10:46:01;;;;;;;0.20;0.10;;;;;;;;;;4995302;28;20063;-85
2022/11/25 10:48:27;;;;;;;0.20;0.10;;;;;;;;;;5007754;28;20120;-86
2022/11/25 10:51:12;;;;;;;0.20;0.10;;;;;;;;;;5000038;28;20059;-85
2022/11/25 10:53:38;;;;;;;0.20;0.10;;;;;;;;;;5001811;28;20034;-86
2022/11/25 10:56:10;;;;;;;0.57;0.57;;;;;;;;;;4984442;28;20447;-86
2022/11/25 10:58:38;;;;;;;0.20;0.10;;;;;;;;;;4996220;28;20052;-86
2022/11/25 11:01:07;;;;;;;0.30;0.30;;;;;;;;;;4999646;28;20052;-86
2022/11/25 11:03:34;;;;;;;0.20;0.10;;;;;;;;;;5014216;28;20037;-85
2022/11/25 11:06:00;;;;;;;0.20;0.10;;;;;;;;;;5020622;28;20802;-86
2022/11/25 11:08:27;;;;;;;0.20;0.10;;;;;;;;;;4982780;28;20053;-85
2022/11/25 11:11:14;;;;;;;0.40;0.40;;;;;;;;;;5005984;28;20111;-85
2022/11/25 11:13:40;;;;;;;0.20;0.10;;;;;;;;;;5019747;28;20045;-85
2022/11/25 11:16:21;;;;;;;0.20;0.10;;;;;;;;;;5005117;28;20042;-84
2022/11/25 11:18:47;;;;;;;0.20;0.10;;;;;;;;;;5016851;28;20034;-84
2022/11/25 11:21:22;;;;;;;0.57;0.47;;;;;;;;;;4992129;28;20507;-84
2022/11/25 11:23:53;;;;;;;0.20;0.10;;;;;;;;;;5006129;28;20038;-86
2022/11/25 11:26:22;;;;;;;0.20;0.10;;;;;;;;;;4998876;28;20042;-85
2022/11/25 11:28:56;;;;;;;0.20;0.10;;;;;;;;;;5013643;28;20041;-85
2022/11/25 11:31:24;;;;;;;0.20;0.10;;;;;;;;;;5001343;28;20037;-84
2022/11/25 11:33:53;;;;;;;0.20;0.10;;;;;;;;;;4999889;28;20513;-84
2022/11/25 11:36:28;;;;;;;0.20;0.10;;;;;;;;;;4998753;28;20122;-85
2022/11/25 11:39:00;;;;;;;0.20;0.10;;;;;;;;;;5025664;28;20768;-85
2022/11/25 11:41:26;;;;;;;0.20;0.10;;;;;;;;;;5015540;28;20065;-85
2022/11/25 11:43:59;;;;;;;0.20;0.00;;;;;;;;;;5007958;28;20041;-84
2022/11/25 11:46:43;;;;;;;0.20;0.10;;;;;;;;;;5004090;28;20567;-85
2022/11/25 11:49:22;;;;;;;0.30;0.15;;;;;;;;;;5016969;28;20049;-85
2022/11/25 11:52:11;;;;;;;0.47;0.40;;;;;;;;;;5002157;28;20061;-84
2022/11/25 11:54:45;;;;;;;0.20;0.10;;;;;;;;;;5009552;28;20103;-86
2022/11/25 11:57:17;;;;;;;0.20;0.10;;;;;;;;;;5013933;28;20054;-84
2022/11/25 11:59:48;;;;;;;0.20;0.10;;;;;;;;;;4996793;28;20046;-85
2022/11/25 12:02:23;;;;;;;0.20;0.10;;;;;;;;;;5015623;28;22513;-85
2022/11/25 12:04:50;;;;;;;4.32;0.65;;;;;;;;;;4999529;28;20502;-85
2022/11/25 12:07:19;;;;;;;0.20;0.10;;;;;;;;;;5000746;28;20045;-85
2022/11/25 12:09:52;;;;;;;0.20;0.10;;;;;;;;;;5017990;28;22558;-85
2022/11/25 12:12:18;;;;;;;0.20;0.10;;;;;;;;;;5025261;22;20515;-78
2022/11/25 12:14:47;;;;;;;0.20;0.10;;;;;;;;;;5017958;28;20049;-76
2022/11/25 12:17:18;;;;;;;0.20;0.05;;;;;;;;;;5023360;28;20033;-78
2022/11/25 12:19:51;;;;;;;0.20;0.10;;;;;;;;;;5021033;28;20041;-76
2022/11/25 12:22:17;;;;;;;0.20;0.10;;;;;;;;;;5022628;28;20052;-78
2022/11/25 12:24:46;;;;;;;0.20;0.10;;;;;;;;;;5039641;22;20064;-77
2022/11/25 12:27:12;;;;;;;0.68;0.35;;;;;;;;;;5028648;28;20271;-78
2022/11/25 12:29:44;;;;;;;0.20;0.10;;;;;;;;;;5033014;28;20045;-78
2022/11/25 12:32:23;;;;;;;0.20;0.10;;;;;;;;;;5049701;28;20033;-78
2022/11/25 12:35:05;;;;;;;0.20;0.10;;;;;;;;;;5022728;28;20049;-75
2022/11/25 12:37:37;;;;;;;8.33;1.70;;;;;;;;;;5042943;28;20052;-76
2022/11/25 12:40:18;;;;;;;0.25;0.13;;;;;;;;;;5044072;28;20383;-77
2022/11/25 12:42:45;;;;;;;0.20;0.10;;;;;;;;;;5042250;28;20044;-76
2022/11/25 12:45:15;;;;;;;0.20;0.10;;;;;;;;;;5045474;28;20040;-77
2022/11/25 12:47:41;;;;;;;0.52;0.47;;;;;;;;;;5045129;28;20041;-77
2022/11/25 12:50:13;;;;;;;0.20;0.10;;;;;;;;;;5044901;28;20064;-76
2022/11/25 12:52:40;;;;;;;;;;;;;;;;;;5026899;28;20086;-76
2022/11/25 12:55:17;;;;;;;0.20;0.17;;;;;;;;;;5043641;28;19916;-77
2022/11/25 12:57:55;;;;;;;0.20;0.10;;;;;;;;;;5044478;28;20093;-76
2022/11/25 13:00:24;;;;;;;0.20;0.10;;;;;;;;;;5027423;28;20040;-76
2022/11/25 13:03:25;;;;;;;0.20;0.10;;;;;;;;;;5044361;28;20407;-76
2022/11/25 13:06:10;;;;;;;0.20;0.10;;;;;;;;;;5028659;28;20079;-77
2022/11/25 13:08:49;;;;;;;0.20;0.10;;;;;;;;;;5045331;28;20338;-77
2022/11/25 13:11:18;;;;;;;0.20;0.10;;;;;;;;;;5043415;28;20052;-77
2022/11/25 13:14:03;;;;;;;0.20;0.10;;;;;;;;;;5027204;28;20705;-77
2022/11/25 13:16:30;;;;;;;0.20;0.10;;;;;;;;;;5037300;28;20053;-76
2022/11/25 13:18:56;;;;;;;0.20;0.10;;;;;;;;;;5043138;28;20044;-77
2022/11/25 13:21:23;;;;;;;0.20;0.10;;;;;;;;;;5044577;28;20039;-76
2022/11/25 13:23:55;;;;;;;0.20;0.10;;;;;;;;;;5044687;28;20044;-76
2022/11/25 13:26:31;;;;;;;1.27;0.10;;;;;;;;;;5025827;28;20041;-77
2022/11/25 13:29:05;;;;;;;0.20;0.10;;;;;;;;;;5042645;28;21936;-77
2022/11/25 13:31:32;;;;;;;0.20;0.10;;;;;;;;;;5043395;28;20049;-77
2022/11/25 13:34:21;;;;;;;0.20;0.10;;;;;;;;;;5043722;28;20040;-76
2022/11/25 13:36:49;;;;;;;0.20;0.10;;;;;;;;;;5045080;28;20041;-79
2022/11/25 13:39:28;;;;;;;0.20;0.10;;;;;;;;;;5027080;28;20079;-76
2022/11/25 13:42:02;;;;;;;0.38;0.38;;;;;;;;;;5040792;28;20124;-76
2022/11/25 13:44:31;;;;;;;0.20;0.10;;;;;;;;;;5025987;28;20490;-76
2022/11/25 13:47:00;;;;;;;0.20;0.10;;;;;;;;;;5041737;28;20041;-77
2022/11/25 13:49:29;;;;;;;0.20;0.10;;;;;;;;;;5043742;28;20079;-77
2022/11/25 13:52:01;;;;;;;0.38;0.13;;;;;;;;;;5044839;28;20045;-76
2022/11/25 13:55:00;;;;;;;0.20;0.10;;;;;;;;;;5044077;28;20041;-76
2022/11/25 13:57:31;;;;;;;0.20;0.10;;;;;;;;;;4995304;28;20099;-77
2022/11/25 14:00:29;;;;;;;0.20;0.10;;;;;;;;;;5042649;28;20091;-77
2022/11/25 14:03:15;;;;;;;0.20;0.10;;;;;;;;;;5041416;28;20033;-76
2022/11/25 14:05:41;;;;;;;0.20;0.10;;;;;;;;;;5039669;28;20403;-76
2022/11/25 14:08:20;;;;;;;0.68;0.30;;;;;;;;;;5044032;28;20048;-76
2022/11/25 14:10:58;;;;;;;0.20;0.10;;;;;;;;;;5040446;28;20103;-76
2022/11/25 14:13:30;;;;;;;0.20;0.10;;;;;;;;;;5042940;28;20092;-76
2022/11/25 14:16:07;;;;;;;0.20;0.10;;;;;;;;;;5044246;28;20071;-76
2022/11/25 14:18:43;;;;;;;0.20;0.10;;;;;;;;;;5044397;28;20029;-76
2022/11/25 14:21:28;;;;;;;0.20;0.10;;;;;;;;;;5043039;28;20060;-76
2022/11/25 14:23:54;;;;;;;0.38;0.38;;;;;;;;;;5040452;28;20106;-76
2022/11/25 14:26:26;;;;;;;0.20;0.10;;;;;;;;;;5025476;28;20041;-77
2022/11/25 14:29:02;;;;;;;0.20;0.10;;;;;;;;;;5022741;28;20130;-76
2022/11/25 14:31:41;;;;;;;0.20;0.10;;;;;;;;;;5041694;28;20375;-76
2022/11/25 14:34:26;;;;;;;0.20;0.10;;;;;;;;;;5026105;28;20502;-76
2022/11/25 14:37:14;;;;;;;0.20;0.10;;;;;;;;;;5041833;28;20067;-77
2022/11/25 14:39:49;;;;;;;0.20;0.10;;;;;;;;;;5025917;28;20128;-76
2022/11/25 14:42:19;;;;;;;0.20;0.10;;;;;;;;;;5025508;28;20508;-77
2022/11/25 14:44:45;;;;;;;0.20;0.10;;;;;;;;;;5025984;28;20043;-77
2022/11/25 14:47:11;;;;;;;0.20;0.10;;;;;;;;;;5042893;28;20045;-76
2022/11/25 14:49:51;;;;;;;0.20;0.10;;;;;;;;;;5043974;28;20044;-76
2022/11/25 14:52:19;;;;;;;0.20;0.10;;;;;;;;;;5026356;28;20033;-76
2022/11/25 14:54:45;;;;;;;0.20;0.10;;;;;;;;;;5041574;28;20059;-76
2022/11/25 14:57:11;;;;;;;1.65;0.45;;;;;;;;;;5008084;28;20047;-77
2022/11/25 14:59:38;;;;;;;0.43;0.43;;;;;;;;;;5024983;28;20039;-77
2022/11/25 15:02:04;;;;;;;0.70;0.70;;;;;;;;;;5046507;28;20052;-76
2022/11/25 15:04:31;;;;;;;1.08;1.08;;;;;;;;;;5009135;28;20526;-76